Pagrindinis puslapis
METAR-TAF:

METAR-TAF

Oro uostai :

Šendženas, Kinija

platuma: 22-33N, ilguma: 114-06E, Aukštis: 18 m

Dabartinis oras

Ataskaita buvo paskelbta 16 minutes, ne 14:00 UTC
Vėjas 10 kt iš Šiaurės Rytų
Temperatūra 17°C
Drėgmė 25%
Slėgis 1026 hPa
Matomumas 10 km arba daugiau
nėra debesų žemiau 1500 m ir nėra kamuolinių lietaus debesų

METAR: ZGSZ 071400Z 04005MPS CAVOK 17/M03 Q1026 NOSIG

Laikas: 22:16 (14:16 UTC)

Prognozė

Ataskaita buvo paskelbta 5 valandos ir 13 minutes, ne 09:03 UTC
Prognozė galioja nuo 07 metu 12 UTC su 08 metu 12 UTC
Vėjas 10 kt iš Šiaurės Rytų
Matomumas: 8000 m
Mažai debesys ne aukštis 4000 ft

TAF: ZGSZ 070903Z 0712/0812 04005MPS 8000 FEW040 TX22/0806Z TN12/0722Z

Orai ataskaitas ir orų prognozės (METAR, TAF).

turimą stotys yra geltonos ir raudonos taškus žemėlapyje.

Perkelti pele per norėdami pamatyti stoties vardą.

Tada spustelėkite, norėdami matyti oro stebėjimo ir prognozės.

Norėdami pakeisti žemėlapį: spustelėkite ant žalios mygtukų su juodo kryžiaus žemyn,; žalią mygtuką su brūkšneliu, jei norite nutolinti; arba žalių rodyklių gretimoms žemėlapius.


METAR-TAF: